createdAt,value
2018-12-17T18:11:52.651Z,22.10
2018-12-17T18:12:52.625Z,34.70
2018-12-17T18:13:52.617Z,26.50
2018-12-17T18:14:52.604Z,17.50
2018-12-17T18:15:52.592Z,16.30
2018-12-17T18:16:52.582Z,16.50
2018-12-17T18:17:52.572Z,16.40
2018-12-17T18:18:52.564Z,19.60
2018-12-17T18:19:52.567Z,21.30
2018-12-17T18:20:52.536Z,16.10
2018-12-17T18:21:52.528Z,12.10
2018-12-17T18:22:52.515Z,16.80
2018-12-17T18:23:52.522Z,13.10
2018-12-17T18:24:52.497Z,14.50
2018-12-17T18:25:53.203Z,14.30
2018-12-17T18:26:52.474Z,12.30
2018-12-17T18:27:52.783Z,14.10
2018-12-17T18:28:52.902Z,17.20
2018-12-17T18:29:52.439Z,12.40
2018-12-17T18:30:52.461Z,13.80
2018-12-17T18:31:52.417Z,13.80
2018-12-17T18:32:52.414Z,13.10
2018-12-17T18:33:52.397Z,13.00
2018-12-17T18:34:52.400Z,12.60
2018-12-17T18:35:52.371Z,12.30
2018-12-17T18:36:52.372Z,14.50
2018-12-17T18:37:52.352Z,13.80
2018-12-17T18:38:52.342Z,11.10
2018-12-17T18:39:52.334Z,11.50
2018-12-17T18:40:52.320Z,12.80
2018-12-17T18:41:52.309Z,14.20
2018-12-17T18:42:52.366Z,11.00
2018-12-17T18:43:52.297Z,11.30
2018-12-17T18:44:52.284Z,15.20
2018-12-17T18:45:52.265Z,10.10
2018-12-17T18:46:52.255Z,11.40
2018-12-17T18:47:52.248Z,11.60
2018-12-17T18:48:52.641Z,10.90
2018-12-17T18:49:52.223Z,9.30
2018-12-17T18:50:52.217Z,18.90
2018-12-17T18:51:52.207Z,11.70
2018-12-17T18:52:52.195Z,12.00
2018-12-17T18:53:52.180Z,13.20
2018-12-17T18:54:52.188Z,12.70
2018-12-17T18:55:52.155Z,9.60
2018-12-17T18:56:52.149Z,12.30
2018-12-17T18:57:52.134Z,9.60
2018-12-17T18:58:52.128Z,11.70
2018-12-17T18:59:52.114Z,12.30
2018-12-17T19:00:52.103Z,10.60
2018-12-17T19:01:52.105Z,11.70
2018-12-17T19:02:52.084Z,11.60
2018-12-17T19:03:52.071Z,9.80
2018-12-17T19:04:52.074Z,8.70
2018-12-17T19:05:52.053Z,12.00
2018-12-17T19:06:52.046Z,11.30
2018-12-17T19:07:52.112Z,10.10
2018-12-17T19:08:52.015Z,10.60
2018-12-17T19:09:52.003Z,11.40
2018-12-17T19:10:52.244Z,9.70
2018-12-17T19:11:51.987Z,11.70
2018-12-17T19:12:51.975Z,11.40
2018-12-17T19:13:51.963Z,13.00
2018-12-17T19:14:51.947Z,9.90
2018-12-17T19:15:51.938Z,11.00
2018-12-17T19:16:51.993Z,10.30
2018-12-17T19:17:51.918Z,14.40
2018-12-17T19:18:51.902Z,11.80
2018-12-17T19:19:51.888Z,10.10
2018-12-17T19:20:51.877Z,8.60
2018-12-17T19:21:51.874Z,9.40
2018-12-17T19:22:51.866Z,9.80
2018-12-17T19:23:51.844Z,9.80
2018-12-17T19:24:51.933Z,10.40
2018-12-17T19:25:51.955Z,12.20
2018-12-17T19:26:51.814Z,11.90
2018-12-17T19:27:51.799Z,11.00
2018-12-17T19:28:51.791Z,9.90
2018-12-17T19:29:51.788Z,8.60
2018-12-17T19:30:51.782Z,10.30
2018-12-17T19:31:51.759Z,11.10
2018-12-17T19:32:51.743Z,8.90
2018-12-17T19:33:51.784Z,9.90
2018-12-17T19:34:51.729Z,9.90
2018-12-17T19:35:51.716Z,9.20
2018-12-17T19:36:51.699Z,11.60
2018-12-17T19:37:51.692Z,9.90
2018-12-17T19:38:51.684Z,10.80
2018-12-17T19:39:51.669Z,9.90
2018-12-17T19:40:51.661Z,8.20
2018-12-17T19:41:51.649Z,9.10
2018-12-17T19:42:56.256Z,10.80
2018-12-17T19:43:51.623Z,11.60
2018-12-17T19:44:51.611Z,12.80
2018-12-17T19:45:51.600Z,12.50
2018-12-17T19:46:51.595Z,11.10
2018-12-17T19:47:51.588Z,15.90
2018-12-17T19:48:51.565Z,26.50
2018-12-17T19:49:51.556Z,14.70
2018-12-17T19:50:51.565Z,15.40
2018-12-17T19:51:51.536Z,15.40
2018-12-17T19:52:51.535Z,11.80
2018-12-17T19:53:51.520Z,10.90
2018-12-17T19:54:51.503Z,12.40
2018-12-17T19:55:51.551Z,13.00
2018-12-17T19:56:51.495Z,16.70
2018-12-17T19:57:51.471Z,13.90
2018-12-17T19:58:51.464Z,16.10
2018-12-17T19:59:51.450Z,12.30
2018-12-17T20:00:51.448Z,15.10
2018-12-17T20:01:51.434Z,34.20
2018-12-17T20:02:51.418Z,105.10
2018-12-17T20:03:51.403Z,79.80
2018-12-17T20:04:51.399Z,51.40
2018-12-17T20:05:51.380Z,58.90
2018-12-17T20:06:51.371Z,39.70
2018-12-17T20:07:51.364Z,45.90
2018-12-17T20:08:51.352Z,42.90
2018-12-17T20:09:51.337Z,29.70
2018-12-17T20:10:51.335Z,36.40
2018-12-17T20:11:51.328Z,30.50
2018-12-17T20:12:51.303Z,44.10
2018-12-17T20:13:51.295Z,32.50
2018-12-17T21:12:33.625Z,30.50
2018-12-17T21:13:33.087Z,28.90
2018-12-17T21:14:33.020Z,22.40
2018-12-17T21:15:33.005Z,20.90
2018-12-17T21:16:33.013Z,24.30
2018-12-17T21:17:32.988Z,20.10
2018-12-17T21:18:32.992Z,20.20
2018-12-17T21:19:32.961Z,21.10
2018-12-17T21:20:32.957Z,20.20
2018-12-17T21:21:32.945Z,15.90
2018-12-17T21:22:32.955Z,17.40
2018-12-17T21:23:33.102Z,19.80
2018-12-17T21:24:33.000Z,16.10
2018-12-17T21:25:32.896Z,20.10
2018-12-17T21:26:32.886Z,16.40
2018-12-17T21:27:32.876Z,18.10
2018-12-17T21:28:32.862Z,20.10
2018-12-17T21:29:32.860Z,17.80
2018-12-17T21:30:32.850Z,15.40
2018-12-17T21:31:32.834Z,15.40
2018-12-17T21:32:32.822Z,18.10
2018-12-17T21:33:32.811Z,23.40
2018-12-17T21:34:33.174Z,17.10
2018-12-17T21:35:32.787Z,14.70
2018-12-17T21:36:32.778Z,15.70
2018-12-17T21:37:32.776Z,12.30
2018-12-17T21:38:32.758Z,13.70
2018-12-17T21:39:32.761Z,17.70
2018-12-17T21:40:32.734Z,30.60
2018-12-17T21:41:32.723Z,17.50
2018-12-17T21:42:32.714Z,19.90
2018-12-17T21:43:36.067Z,19.30
2018-12-17T21:44:32.689Z,21.90
2018-12-17T21:45:32.679Z,14.80
2018-12-17T21:46:34.019Z,36.40
2018-12-17T21:47:32.666Z,23.60
2018-12-17T21:48:32.652Z,22.20
2018-12-17T21:49:32.642Z,16.70
2018-12-17T21:50:32.627Z,22.90
2018-12-17T21:51:32.614Z,17.00
2018-12-17T21:52:32.604Z,24.60
2018-12-17T21:53:32.595Z,20.80
2018-12-17T21:54:32.593Z,20.50
2018-12-17T21:55:32.571Z,23.50
2018-12-17T21:56:32.570Z,20.00
2018-12-17T21:57:32.673Z,23.80
2018-12-17T21:58:32.731Z,18.70
2018-12-17T21:59:32.528Z,25.40
2018-12-17T22:00:33.683Z,16.80
2018-12-17T22:01:32.611Z,22.10
2018-12-17T22:02:32.498Z,17.80
2018-12-17T22:03:32.486Z,17.50
2018-12-17T22:04:32.475Z,16.30
2018-12-17T22:05:32.463Z,18.00
2018-12-17T22:06:32.452Z,24.80
2018-12-17T22:07:32.443Z,20.00
2018-12-17T22:08:32.431Z,15.50
2018-12-17T22:09:32.423Z,18.50
2018-12-17T22:10:32.423Z,21.40
2018-12-17T22:11:32.407Z,18.00
2018-12-17T22:12:32.423Z,21.30
2018-12-17T22:13:32.574Z,26.90
2018-12-17T22:14:32.363Z,33.80
2018-12-17T22:15:32.354Z,24.50
2018-12-17T22:16:32.341Z,23.30
2018-12-17T22:17:32.342Z,34.30
2018-12-17T22:18:32.322Z,32.50
2018-12-17T22:19:32.311Z,26.50
2018-12-17T22:20:32.304Z,23.10
2018-12-17T22:21:32.290Z,22.90
2018-12-17T22:22:32.283Z,26.00
2018-12-17T22:23:32.265Z,22.60
2018-12-17T22:24:32.255Z,50.80
2018-12-17T22:25:32.305Z,39.50
2018-12-17T22:26:32.328Z,40.70
2018-12-17T22:27:32.312Z,33.60
2018-12-17T22:28:32.256Z,42.90
2018-12-17T22:29:32.198Z,47.80
2018-12-17T22:30:32.190Z,45.20
2018-12-17T22:31:32.185Z,39.80
2018-12-17T22:32:32.174Z,42.30
2018-12-17T22:33:32.155Z,30.80
2018-12-17T22:34:32.151Z,43.10
2018-12-17T22:35:32.132Z,34.90
2018-12-17T22:36:32.210Z,27.50
2018-12-17T22:37:32.113Z,40.80
2018-12-17T22:38:32.105Z,42.60
2018-12-17T22:39:32.093Z,37.10
2018-12-17T22:40:32.087Z,33.40
2018-12-17T22:41:32.066Z,29.50
2018-12-17T22:42:32.066Z,37.00
2018-12-17T22:43:32.052Z,35.60
2018-12-17T22:44:32.039Z,30.80
2018-12-17T22:45:32.032Z,26.20
2018-12-17T22:46:32.013Z,29.50
2018-12-17T22:47:32.003Z,29.50
2018-12-17T22:48:32.015Z,25.70
2018-12-17T22:49:31.981Z,26.80
2018-12-17T22:50:31.969Z,36.50
2018-12-17T22:51:31.959Z,24.70
2018-12-17T22:52:31.949Z,38.00
2018-12-17T22:53:31.942Z,26.60
2018-12-17T22:54:31.930Z,32.30
2018-12-17T22:55:31.916Z,30.90
2018-12-17T22:56:31.906Z,21.40
2018-12-17T22:57:31.900Z,35.30
2018-12-17T22:58:31.888Z,30.10
2018-12-17T22:59:31.876Z,25.80
2018-12-17T23:00:31.862Z,33.10
2018-12-17T23:01:31.858Z,23.80
2018-12-17T23:02:31.842Z,49.30
2018-12-17T23:03:31.839Z,31.60
2018-12-17T23:04:31.822Z,38.40
2018-12-17T23:05:31.811Z,27.60
2018-12-17T23:06:31.801Z,24.80
2018-12-17T23:07:31.802Z,31.90
2018-12-17T23:08:31.781Z,29.40
2018-12-17T23:09:31.778Z,20.00
2018-12-17T23:10:31.758Z,25.80
2018-12-17T23:11:31.744Z,24.30
2018-12-17T23:12:31.767Z,61.40
2018-12-17T23:13:31.723Z,20.60
2018-12-17T23:14:31.756Z,16.20
2018-12-17T23:15:31.713Z,17.30
2018-12-17T23:16:31.702Z,14.80
2018-12-17T23:17:31.687Z,17.00
